»·PEaware :: DAL2081 KATL-KAUS

DAL2081 :: KATL-KAUS

FLIGHT INFORMATION

Flight Status: Arrived
Operator:
Delta Air Lines
More flights by this operator :: More flights under this callsign
Pilot: Drew Leevy (13237)
Aircraft: BOEING 757-200
(B752)
More flights by this aircraft type
Origin: KATL Hartsfield-Jackson Atlanta
United States
Destination: KAUS Austin Bergstrom Intl
United States
More flights between these airports :: More routes between these airports
Route: POUNC2 STEIT MEI LCH LUKKN WLEEE3
File this flight plan on PilotEdge
Remarks: Sample flight plan
Altitude:
(Current/Filed)
38,000ft
Speed:
(Current/Filed)
115kts
Departed: 21-May-17 05:40 PM
Arrived: 21-May-17 07:38 PM
Distance/Time
Traveled:
704nm/1:58
Distance/Time
To Go:
Arrived

Flight Plot

Page will automatically refresh every two minutes.

Flight plan parsing failed; only flown route is shown


Map Options




Map Legend


Flown Route
Filed Route
Departure Airport
Arrival Airport
Navaid (VOR, NDB)
Fix

Horizontal Profiles

Position Reports

Time Latitude Longitude Heading Altitude Ground
Speed
21-May-17 17:21 33.643654 -84.439748 89 1034ft 0kts
21-May-17 17:22 33.643654 -84.439748 89 1034ft 0kts
21-May-17 17:23 33.643654 -84.439748 89 1034ft 0kts
21-May-17 17:24 33.643654 -84.439748 89 1034ft 0kts
21-May-17 17:25 33.643654 -84.439748 89 1033ft 0kts
21-May-17 17:26 33.643654 -84.439748 89 1033ft 0kts
21-May-17 17:27 33.643654 -84.439748 89 1033ft 0kts
21-May-17 17:28 33.643654 -84.439748 89 1033ft 0kts
21-May-17 17:29 33.643654 -84.439748 89 1033ft 0kts
21-May-17 17:30 33.643654 -84.439748 89 1033ft 0kts
21-May-17 17:31 33.643651 -84.440208 89 1033ft 2kts
21-May-17 17:32 33.643505 -84.440520 4 1033ft 0kts
21-May-17 17:33 33.643505 -84.440520 4 1033ft 0kts
21-May-17 17:34 33.643515 -84.440519 4 1033ft 0kts
21-May-17 17:35 33.643516 -84.440519 4 1033ft 0kts
21-May-17 17:36 33.643911 -84.440472 18 1033ft 13kts
21-May-17 17:37 33.644578 -84.437097 87 1033ft 28kts
21-May-17 17:38 33.644653 -84.427328 83 1033ft 30kts
21-May-17 17:39 33.645418 -84.419085 90 1033ft 23kts
21-May-17 17:40 33.645419 -84.409980 90 1034ft 27kts
21-May-17 17:41 33.646795 -84.406965 270 1033ft 16kts
21-May-17 17:42 33.646927 -84.449948 268 2368ft 189kts
21-May-17 17:43 33.642397 -84.525577 265 4979ft 256kts
21-May-17 17:44 33.637752 -84.612053 265 8888ft 267kts
21-May-17 17:45 33.635460 -84.705657 269 11277ft 323kts
21-May-17 17:46 33.599495 -84.812190 241 14312ft 359kts
21-May-17 17:47 33.551566 -84.919102 240 17541ft 373kts
21-May-17 17:48 33.501968 -85.029896 241 20351ft 386kts
21-May-17 17:49 33.450760 -85.144319 241 22866ft 398kts
21-May-17 17:50 33.407075 -85.266958 252 25035ft 410kts
21-May-17 17:51 33.374124 -85.399406 253 27271ft 414kts
21-May-17 17:52 33.341499 -85.536077 254 28659ft 434kts
21-May-17 17:53 33.307317 -85.674235 253 30169ft 446kts
21-May-17 17:54 33.270952 -85.816929 254 31715ft 453kts
21-May-17 17:55 33.234929 -85.959203 254 33737ft 445kts
21-May-17 17:56 33.198846 -86.098020 253 35699ft 434kts
21-May-17 17:57 33.164069 -86.233742 253 37309ft 426kts
21-May-17 17:58 33.129608 -86.368099 253 38113ft 422kts
21-May-17 17:59 33.095215 -86.501605 253 38124ft 422kts
21-May-17 18:00 33.060789 -86.634606 253 38122ft 421kts
21-May-17 18:01 33.026507 -86.766370 252 38130ft 421kts
21-May-17 18:02 32.992398 -86.899588 253 38129ft 421kts
21-May-17 18:03 32.957269 -87.032517 252 38128ft 421kts
21-May-17 18:04 32.921917 -87.164885 253 38126ft 420kts
21-May-17 18:05 32.887614 -87.294163 253 38129ft 419kts
21-May-17 18:06 32.853223 -87.426357 253 38126ft 420kts
21-May-17 18:07 32.817343 -87.558126 252 38125ft 420kts
21-May-17 18:08 32.783102 -87.687672 252 38134ft 419kts
21-May-17 18:09 32.747718 -87.819195 252 38131ft 419kts
21-May-17 18:10 32.704651 -87.947515 247 38130ft 420kts
21-May-17 18:11 32.658143 -88.074348 247 38129ft 419kts
21-May-17 18:12 32.611021 -88.200342 247 38129ft 420kts
21-May-17 18:13 32.563453 -88.326686 247 38126ft 420kts
21-May-17 18:14 32.515147 -88.452013 247 38125ft 420kts
21-May-17 18:15 32.466438 -88.577457 247 38123ft 420kts
21-May-17 18:16 32.424151 -88.689255 247 38134ft 420kts
21-May-17 18:17 32.375715 -88.814085 242 38132ft 420kts
21-May-17 18:18 32.317861 -88.933882 242 38130ft 420kts
21-May-17 18:19 32.259965 -89.052299 241 38131ft 419kts
21-May-17 18:20 32.200849 -89.170673 241 38127ft 420kts
21-May-17 18:21 32.141361 -89.289210 241 38125ft 420kts
21-May-17 18:22 32.082328 -89.407452 241 38124ft 420kts
21-May-17 18:23 32.022357 -89.525318 241 38123ft 419kts
21-May-17 18:24 31.963215 -89.642754 241 38121ft 419kts
21-May-17 18:25 31.914313 -89.739881 241 38131ft 419kts
21-May-17 18:26 31.859557 -89.848431 241 38131ft 419kts
21-May-17 18:27 31.791688 -89.986067 242 38135ft 418kts
21-May-17 18:28 31.742209 -90.083222 241 38156ft 418kts
21-May-17 18:29 31.672467 -90.219667 241 38154ft 418kts
21-May-17 18:30 31.622771 -90.316667 240 38153ft 418kts
21-May-17 18:31 31.552188 -90.452396 241 38151ft 417kts
21-May-17 18:32 31.502834 -90.549471 243 38150ft 417kts
21-May-17 18:33 31.445083 -90.664716 241 38158ft 417kts
21-May-17 18:34 31.385510 -90.780520 241 38144ft 417kts
21-May-17 18:35 31.315206 -90.914752 240 38130ft 417kts
21-May-17 18:36 31.264907 -91.010634 241 38129ft 417kts
21-May-17 18:37 31.203933 -91.125592 241 38127ft 417kts
21-May-17 18:38 31.143784 -91.239921 241 38126ft 416kts
21-May-17 18:39 31.083446 -91.354825 241 38124ft 416kts
21-May-17 18:40 31.023089 -91.469529 241 38123ft 416kts
21-May-17 18:41 30.962758 -91.583861 241 38121ft 415kts
21-May-17 18:42 30.902818 -91.697110 241 38133ft 415kts
21-May-17 18:43 30.845500 -91.805105 241 38132ft 415kts
21-May-17 18:44 30.784778 -91.919220 241 38130ft 415kts
21-May-17 18:45 30.725351 -92.032562 241 38105ft 414kts
21-May-17 18:46 30.664160 -92.146194 240 38101ft 415kts
21-May-17 18:47 30.602943 -92.259097 241 38099ft 414kts
21-May-17 18:48 30.541872 -92.372333 241 38097ft 414kts
21-May-17 18:49 30.480976 -92.485078 241 38096ft 414kts
21-May-17 18:50 30.420016 -92.597980 241 38094ft 414kts
21-May-17 18:51 30.360355 -92.707584 241 38106ft 414kts
21-May-17 18:52 30.299130 -92.819974 241 38104ft 413kts
21-May-17 18:53 30.237655 -92.932503 242 38105ft 416kts
21-May-17 18:54 30.176202 -93.044764 242 38077ft 416kts
21-May-17 18:55 30.136947 -93.165827 266 38083ft 405kts
21-May-17 18:56 30.125348 -93.295093 265 38072ft 405kts
21-May-17 18:57 30.113450 -93.424088 265 38070ft 405kts
21-May-17 18:58 30.101606 -93.552141 265 38068ft 402kts
21-May-17 18:59 30.088736 -93.678776 265 38082ft 402kts
21-May-17 19:00 30.076138 -93.806149 265 38079ft 401kts
21-May-17 19:01 30.063519 -93.933912 264 38104ft 401kts
21-May-17 19:02 30.050108 -94.061187 265 38102ft 400kts
21-May-17 19:03 30.037477 -94.188645 265 38100ft 400kts
21-May-17 19:04 30.024871 -94.315394 265 38098ft 400kts
21-May-17 19:05 30.012019 -94.442682 265 38097ft 399kts
21-May-17 19:06 29.998064 -94.569220 265 38095ft 399kts
21-May-17 19:07 29.984779 -94.693809 264 38110ft 399kts
21-May-17 19:08 29.971970 -94.819945 265 38106ft 398kts
21-May-17 19:09 29.958680 -94.946434 264 38104ft 398kts
21-May-17 19:10 29.945363 -95.072524 263 38075ft 398kts
21-May-17 19:11 29.930746 -95.199209 264 38073ft 398kts
21-May-17 19:12 29.916900 -95.323822 264 38081ft 399kts
21-May-17 19:13 29.902836 -95.449791 264 37999ft 401kts
21-May-17 19:14 29.888893 -95.574464 263 35607ft 412kts
21-May-17 19:15 29.874452 -95.702442 262 32771ft 431kts
21-May-17 19:16 29.852985 -95.839436 256 30062ft 444kts
21-May-17 19:17 29.825265 -95.971099 256 29106ft 403kts
21-May-17 19:18 29.799334 -96.094857 255 26919ft 392kts
21-May-17 19:19 29.783062 -96.215390 272 24832ft 382kts
21-May-17 19:20 29.791894 -96.335619 273 22754ft 372kts
21-May-17 19:21 29.800421 -96.451920 272 20775ft 361kts
21-May-17 19:22 29.812331 -96.564659 289 18812ft 356kts
21-May-17 19:23 29.874024 -96.652515 308 16771ft 359kts
21-May-17 19:24 29.930110 -96.731426 290 15238ft 347kts
21-May-17 19:25 29.971123 -96.831809 294 14020ft 345kts
21-May-17 19:26 30.014477 -96.928757 295 12603ft 336kts
21-May-17 19:27 30.057064 -97.023354 295 11191ft 330kts
21-May-17 19:28 30.099010 -97.116699 295 9690ft 325kts
21-May-17 19:29 30.137732 -97.203550 295 9208ft 284kts
21-May-17 19:30 30.174565 -97.286146 294 7963ft 282kts
21-May-17 19:31 30.205916 -97.370653 292 6696ft 281kts
21-May-17 19:32 30.236351 -97.448058 295 6111ft 259kts
21-May-17 19:33 30.265200 -97.519897 295 5097ft 244kts
21-May-17 19:34 30.307993 -97.571136 326 4290ft 218kts
21-May-17 19:35 30.330462 -97.629103 257 3529ft 193kts
21-May-17 19:36 30.297215 -97.664471 159 2283ft 169kts
21-May-17 19:37 30.257132 -97.659257 176 1606ft 137kts
21-May-17 19:38 30.219993 -97.658186 179 865ft 130kts
21-May-17 19:39 30.190871 -97.657592 179 553ft 44kts
21-May-17 19:40 30.190195 -97.659590 358 553ft 29kts
21-May-17 19:41 30.197245 -97.659779 359 552ft 21kts
21-May-17 19:42 30.199271 -97.663832 359 552ft 17kts
21-May-17 19:43 30.201698 -97.664490 339 552ft 0kts

Navigation Log

Ident Type
Flight plan parsing failed, navigation log unavailable